Time;durP1;ratioP1;P1;durP2;ratioP2;P2;SDS_P1;SDS_P2;PMS_P1;PMS_P2;Temp;Humidity;BMP_temperature;BMP_pressure;BME280_temperature;BME280_humidity;BME280_pressure;Samples;Min_cycle;Max_cycle;Signal;HPM_P1;HPM_P2
2022/12/14 00:01:42;;;;;;;26.52;13.88;;;-3.50;99.90;;;;;;5031519;28;20048;-72
2022/12/14 00:04:15;;;;;;;23.38;12.93;;;-3.40;99.90;;;;;;5027255;28;20135;-73
2022/12/14 00:06:43;;;;;;;28.15;13.18;;;-3.50;99.90;;;;;;5033562;28;20061;-74
2022/12/14 00:09:10;;;;;;;28.05;14.02;;;-3.50;99.90;;;;;;5021355;28;20130;-72
2022/12/14 00:11:38;;;;;;;24.83;12.90;;;-3.50;99.90;;;;;;5036392;28;20099;-72
2022/12/14 00:14:05;;;;;;;26.70;14.55;;;-3.50;99.90;;;;;;5045567;28;20508;-72
2022/12/14 00:16:33;;;;;;;28.42;12.77;;;-3.50;99.90;;;;;;5044957;28;20113;-72
2022/12/14 00:19:04;;;;;;;24.58;13.55;;;-3.50;99.90;;;;;;5046268;28;20161;-71
2022/12/14 00:21:32;;;;;;;27.45;13.88;;;-3.50;99.90;;;;;;5051419;28;20053;-71
2022/12/14 00:23:59;;;;;;;26.80;14.38;;;-3.50;99.90;;;;;;5050681;28;20051;-72
2022/12/14 00:26:30;;;;;;;21.42;11.88;;;-3.50;99.90;;;;;;5034698;28;20069;-77
2022/12/14 00:29:00;;;;;;;25.50;12.88;;;-3.50;99.90;;;;;;5049471;28;20124;-75
2022/12/14 00:31:28;;;;;;;23.85;12.90;;;-3.50;99.90;;;;;;5039098;28;20048;-75
2022/12/14 00:33:56;;;;;;;24.83;12.88;;;-3.50;99.90;;;;;;5027328;28;20045;-77
2022/12/14 00:36:23;;;;;;;27.98;14.23;;;-3.50;99.90;;;;;;5050107;28;20052;-77
2022/12/14 00:38:51;;;;;;;26.40;13.90;;;-3.40;99.90;;;;;;5046921;28;20063;-74
2022/12/14 00:41:18;;;;;;;26.02;13.05;;;-3.50;99.90;;;;;;5044943;28;20049;-75
2022/12/14 00:43:46;;;;;;;25.60;12.82;;;-3.40;99.90;;;;;;5029039;28;20049;-73
2022/12/14 00:46:16;;;;;;;26.98;13.15;;;-3.50;99.90;;;;;;5010683;28;20637;-74
2022/12/14 00:48:44;;;;;;;25.23;13.55;;;-3.50;99.90;;;;;;5045179;28;20041;-73
2022/12/14 00:51:13;;;;;;;24.77;13.57;;;-3.50;99.90;;;;;;5041654;28;20046;-74
2022/12/14 00:53:43;;;;;;;26.67;14.25;;;-3.60;99.90;;;;;;5041419;28;20045;-75
2022/12/14 00:56:11;;;;;;;25.00;13.13;;;-3.60;99.90;;;;;;5044150;28;20041;-74
2022/12/14 00:58:38;;;;;;;25.67;13.52;;;-3.60;99.90;;;;;;5046801;28;20096;-73
2022/12/14 01:01:11;;;;;;;28.85;14.27;;;-3.60;99.90;;;;;;5040171;28;20060;-73
2022/12/14 01:03:38;;;;;;;26.30;13.75;;;-3.60;99.90;;;;;;5038836;28;20132;-73
2022/12/14 01:06:13;;;;;;;26.30;14.18;;;-3.60;99.90;;;;;;5032777;28;20472;-74
2022/12/14 01:08:40;;;;;;;24.95;13.93;;;-3.50;99.90;;;;;;5050203;28;20033;-74
2022/12/14 01:11:09;;;;;;;25.50;13.13;;;-3.50;99.90;;;;;;5050382;28;20041;-75
2022/12/14 01:13:37;;;;;;;27.23;13.57;;;-3.60;99.90;;;;;;5029253;28;20071;-76
2022/12/14 01:16:07;;;;;;;27.48;13.57;;;-3.50;99.90;;;;;;5041539;28;20122;-74
2022/12/14 01:18:36;;;;;;;27.42;13.88;;;-3.50;99.90;;;;;;5031255;28;20102;-73
2022/12/14 01:21:16;;;;;;;27.77;13.88;;;-3.50;99.90;;;;;;5049626;28;20449;-76
2022/12/14 01:23:45;;;;;;;28.48;14.95;;;-3.50;99.90;;;;;;5049309;28;20111;-74
2022/12/14 01:26:15;;;;;;;23.77;13.10;;;-3.50;99.90;;;;;;5030041;28;20041;-75
2022/12/14 01:28:43;;;;;;;25.83;13.50;;;-3.50;99.90;;;;;;5029993;28;20055;-75
2022/12/14 01:31:16;;;;;;;27.02;13.55;;;-3.50;99.90;;;;;;5029692;28;20080;-75
2022/12/14 01:33:44;;;;;;;26.60;14.70;;;-3.50;99.90;;;;;;5043166;28;20347;-74
2022/12/14 01:36:15;;;;;;;26.55;14.00;;;-3.50;99.90;;;;;;5045897;28;20095;-74
2022/12/14 01:38:43;;;;;;;27.50;14.30;;;-3.50;99.90;;;;;;5040753;28;20071;-74
2022/12/14 01:41:26;;;;;;;30.02;14.05;;;-3.40;99.90;;;;;;5035535;28;20566;-73
2022/12/14 01:43:58;;;;;;;27.65;14.30;;;-3.40;99.90;;;;;;5047863;28;20048;-74
2022/12/14 01:46:37;;;;;;;35.88;14.30;;;-3.40;99.90;;;;;;5050742;28;20147;-73
2022/12/14 01:49:31;;;;;;;29.70;14.15;;;-3.40;99.90;;;;;;5049515;28;20049;-73
2022/12/14 01:52:24;;;;;;;26.83;13.95;;;-3.40;99.90;;;;;;5049479;28;20048;-73
2022/12/14 01:55:14;;;;;;;26.85;14.02;;;-3.40;99.90;;;;;;5049387;28;20041;-75
2022/12/14 01:57:52;;;;;;;28.85;13.82;;;-3.40;99.90;;;;;;5026768;28;20056;-73
2022/12/14 02:00:20;;;;;;;27.27;14.38;;;-3.40;99.90;;;;;;5032797;28;20140;-72
2022/12/14 02:02:54;;;;;;;27.75;13.18;;;-3.30;99.90;;;;;;5058657;28;20071;-74
2022/12/14 02:05:23;;;;;;;28.35;14.32;;;-3.30;99.90;;;;;;5037786;28;20045;-74
2022/12/14 02:07:53;;;;;;;32.55;14.60;;;-3.30;99.90;;;;;;5048043;28;20049;-69
2022/12/14 02:10:23;;;;;;;29.27;14.15;;;-3.30;99.90;;;;;;5045792;28;20423;-68
2022/12/14 02:13:24;;;;;;;26.08;13.48;;;-3.30;99.90;;;;;;5047332;28;20518;-69
2022/12/14 02:15:52;;;;;;;24.23;12.23;;;-3.30;99.90;;;;;;5015705;28;20060;-68
2022/12/14 02:18:26;;;;;;;23.85;13.02;;;-3.30;99.90;;;;;;5028991;28;20063;-70
2022/12/14 02:21:21;;;;;;;22.98;13.75;;;-3.20;99.90;;;;;;5036410;28;20083;-68
2022/12/14 02:24:15;;;;;;;23.02;12.48;;;-3.20;99.90;;;;;;5036758;28;20428;-67
2022/12/14 02:27:04;;;;;;;23.63;12.90;;;-3.20;99.90;;;;;;5038974;28;20056;-68
2022/12/14 02:29:58;;;;;;;26.77;13.07;;;-3.10;99.90;;;;;;5025503;28;20069;-69
2022/12/14 02:32:49;;;;;;;29.45;13.65;;;-3.10;99.90;;;;;;5047918;28;20052;-68
2022/12/14 02:35:38;;;;;;;25.85;13.65;;;-3.10;99.90;;;;;;5040362;28;20191;-68
2022/12/14 02:38:12;;;;;;;29.25;14.45;;;-3.10;99.90;;;;;;5020803;28;20093;-68
2022/12/14 02:40:42;;;;;;;34.60;16.00;;;-3.10;99.90;;;;;;5026047;28;20064;-69
2022/12/14 02:43:27;;;;;;;30.63;14.30;;;-3.10;99.90;;;;;;5042631;28;20053;-68
2022/12/14 02:46:16;;;;;;;34.53;14.40;;;-3.10;99.90;;;;;;5043535;28;20045;-69
2022/12/14 02:49:05;;;;;;;33.58;14.93;;;-3.10;99.90;;;;;;5035998;28;20053;-68
2022/12/14 02:51:51;;;;;;;32.25;14.48;;;-3.10;99.90;;;;;;5039041;28;20049;-69
2022/12/14 02:54:37;;;;;;;30.13;14.93;;;-3.10;99.90;;;;;;5047349;28;20363;-68
2022/12/14 02:57:45;;;;;;;31.20;15.02;;;-3.10;99.90;;;;;;5038640;28;20510;-67
2022/12/14 03:00:13;;;;;;;27.88;13.05;;;-3.10;99.90;;;;;;5035399;28;20480;-68
2022/12/14 03:02:43;;;;;;;29.58;14.60;;;-3.10;99.90;;;;;;5030875;28;20144;-69
2022/12/14 03:05:11;;;;;;;27.08;14.23;;;-3.10;99.90;;;;;;5037822;28;20067;-69
2022/12/14 03:08:12;;;;;;;36.10;14.00;;;-3.10;99.90;;;;;;5031151;28;20521;-68
2022/12/14 03:10:51;;;;;;;36.42;16.50;;;-3.10;99.90;;;;;;5024430;28;20064;-68
2022/12/14 03:13:29;;;;;;;36.97;16.48;;;-3.10;99.90;;;;;;5059721;28;20049;-68
2022/12/14 03:16:06;;;;;;;37.67;15.32;;;-3.10;99.90;;;;;;5037298;28;20045;-71
2022/12/14 03:18:40;;;;;;;34.75;15.00;;;-3.10;99.90;;;;;;5050194;28;20049;-68
2022/12/14 03:21:11;;;;;;;37.88;14.85;;;-3.10;99.90;;;;;;5045688;28;20041;-69
2022/12/14 03:23:43;;;;;;;35.13;15.38;;;-3.10;99.90;;;;;;5052256;28;20454;-68
2022/12/14 03:26:21;;;;;;;35.05;15.43;;;-3.10;99.90;;;;;;5045088;28;20049;-69
2022/12/14 03:29:01;;;;;;;30.55;14.40;;;-3.10;99.90;;;;;;5051457;28;20562;-70
2022/12/14 03:31:40;;;;;;;27.63;13.45;;;-3.10;99.90;;;;;;5035163;28;20056;-67
2022/12/14 03:34:12;;;;;;;29.98;14.55;;;-3.10;99.90;;;;;;5039165;28;20495;-70
2022/12/14 03:36:42;;;;;;;27.02;13.27;;;-3.20;99.90;;;;;;5030721;28;20037;-68
2022/12/14 03:39:17;;;;;;;27.92;13.52;;;-3.20;99.90;;;;;;5050434;28;20048;-69
2022/12/14 03:42:00;;;;;;;25.83;13.27;;;-3.20;99.90;;;;;;5048108;28;20033;-68
2022/12/14 03:44:48;;;;;;;28.23;13.45;;;-3.20;99.90;;;;;;5047331;28;20045;-69
2022/12/14 03:47:43;;;;;;;27.58;12.80;;;-3.20;99.90;;;;;;5044398;28;20473;-69
2022/12/14 03:50:14;;;;;;;24.77;12.30;;;-3.10;99.90;;;;;;5044681;28;20060;-70
2022/12/14 03:52:52;;;;;;;26.70;12.90;;;-3.10;99.90;;;;;;5033616;28;20064;-69
2022/12/14 03:55:31;;;;;;;20.98;12.40;;;-3.10;99.90;;;;;;5051069;28;20116;-69
2022/12/14 03:58:32;;;;;;;27.70;13.50;;;-3.20;99.90;;;;;;5034656;28;20057;-69
2022/12/14 04:01:37;;;;;;;21.70;12.23;;;-3.20;99.90;;;;;;5049228;28;20148;-70
2022/12/14 04:04:10;;;;;;;26.70;13.45;;;-3.20;99.90;;;;;;5044121;28;20041;-70
2022/12/14 04:07:00;;;;;;;21.95;12.35;;;-3.20;99.90;;;;;;5047984;28;20053;-70
2022/12/14 04:09:27;;;;;;;28.10;13.05;;;-3.30;99.90;;;;;;5025054;28;20041;-70
2022/12/14 04:20:42;;;;;;;24.10;13.25;;;-3.40;99.90;;;;;;5050032;28;20056;-68
2022/12/14 04:26:01;;;;;;;27.25;15.82;;;-3.40;99.90;;;;;;5048028;28;20048;-70
2022/12/14 04:26:07;;;;;;;23.05;13.05;;;-3.30;99.90;;;;;;5030569;28;20049;-69
2022/12/14 04:31:42;;;;;;;27.67;13.25;;;-3.30;99.90;;;;;;5038497;28;20073;-70
2022/12/14 04:34:12;;;;;;;25.65;14.07;;;-3.30;99.90;;;;;;5027540;28;20049;-69
2022/12/14 04:36:52;;;;;;;21.48;12.70;;;-3.30;99.90;;;;;;5040494;28;20049;-68
2022/12/14 04:40:05;;;;;;;27.08;13.48;;;-3.20;99.90;;;;;;5030708;28;20439;-71
2022/12/14 04:42:53;;;;;;;21.98;12.68;;;-3.20;99.90;;;;;;5033034;28;20119;-69
2022/12/14 04:45:30;;;;;;;24.17;13.02;;;-3.20;99.90;;;;;;5048803;28;20120;-68
2022/12/14 04:48:20;;;;;;;27.42;13.43;;;-3.20;99.90;;;;;;5033277;28;20041;-68
2022/12/14 04:50:54;;;;;;;25.45;13.77;;;-3.30;99.90;;;;;;5046715;28;20038;-70
2022/12/14 04:53:25;;;;;;;26.48;13.13;;;-3.30;99.90;;;;;;5042008;28;20087;-68
2022/12/14 04:55:59;;;;;;;;;;;-3.40;99.90;;;;;;5049774;28;20087;-67
2022/12/14 04:58:29;;;;;;;25.52;12.90;;;-3.40;99.90;;;;;;5036053;28;20379;-69
2022/12/14 05:01:34;;;;;;;26.92;15.38;;;-3.40;99.90;;;;;;5028778;28;20037;-67
2022/12/14 05:04:26;;;;;;;35.42;12.73;;;-3.40;99.90;;;;;;5033335;28;20123;-70
2022/12/14 05:07:03;;;;;;;;;;;-3.40;99.90;;;;;;5045191;28;20080;-69
2022/12/14 05:09:54;;;;;;;25.63;12.38;;;-3.30;99.90;;;;;;5044122;28;19959;-68
2022/12/14 05:12:42;;;;;;;22.90;12.45;;;-3.30;99.90;;;;;;5037432;28;20132;-71
2022/12/14 05:15:14;;;;;;;24.10;12.48;;;-3.40;99.90;;;;;;5033995;28;20372;-70
2022/12/14 05:17:41;;;;;;;24.25;12.63;;;-3.40;99.90;;;;;;5027297;28;20060;-69
2022/12/14 05:20:20;;;;;;;22.33;12.60;;;-3.40;99.90;;;;;;5047458;28;20498;-72
2022/12/14 05:22:48;;;;;;;24.80;13.05;;;-3.40;99.90;;;;;;5042706;28;20499;-72
2022/12/14 05:25:16;;;;;;;23.98;12.48;;;-3.40;99.90;;;;;;5044820;28;20152;-73
2022/12/14 05:27:43;;;;;;;20.20;12.38;;;-3.40;99.90;;;;;;5028168;28;20488;-71
2022/12/14 05:30:11;;;;;;;28.65;12.38;;;-3.40;99.90;;;;;;5043434;28;20045;-71
2022/12/14 05:32:38;;;;;;;23.80;12.45;;;-3.40;99.90;;;;;;5035957;28;20041;-72
2022/12/14 05:35:07;;;;;;;23.70;12.45;;;-3.40;99.90;;;;;;5043720;28;20037;-71
2022/12/14 05:37:34;;;;;;;31.25;13.73;;;-3.40;99.90;;;;;;5047083;28;20495;-71
2022/12/14 05:40:03;;;;;;;27.73;12.85;;;-3.30;99.90;;;;;;5050325;28;20064;-71
2022/12/14 05:42:30;;;;;;;24.45;12.40;;;-3.30;99.90;;;;;;5049168;28;20127;-72
2022/12/14 05:44:57;;;;;;;28.35;13.32;;;-3.30;99.90;;;;;;5032688;28;20049;-71
2022/12/14 05:47:26;;;;;;;24.25;12.75;;;-3.20;99.90;;;;;;5042687;28;20049;-72
2022/12/14 05:49:53;;;;;;;22.90;13.32;;;-3.20;99.90;;;;;;5045169;28;20116;-70
2022/12/14 05:52:24;;;;;;;25.17;13.63;;;-3.20;99.90;;;;;;5047689;28;20063;-71
2022/12/14 05:54:52;;;;;;;19.67;11.73;;;-3.10;99.90;;;;;;5037348;28;20128;-70
2022/12/14 05:57:23;;;;;;;22.60;13.82;;;-3.10;99.90;;;;;;5044314;28;20335;-71
2022/12/14 05:59:50;;;;;;;24.60;13.20;;;-3.10;99.90;;;;;;5025042;28;20102;-69
2022/12/14 06:02:17;;;;;;;27.83;13.60;;;-3.10;99.90;;;;;;5047516;28;20976;-72
2022/12/14 06:04:45;;;;;;;23.05;12.65;;;-3.00;99.90;;;;;;5049572;28;20478;-71
2022/12/14 06:07:13;;;;;;;25.23;12.40;;;-2.90;99.90;;;;;;5028877;28;20153;-70
2022/12/14 06:09:40;;;;;;;24.02;12.70;;;-2.90;99.90;;;;;;5030100;28;20048;-71
2022/12/14 06:12:07;;;;;;;20.20;11.88;;;-2.80;99.90;;;;;;5042210;28;20124;-71
2022/12/14 06:14:35;;;;;;;25.13;13.35;;;-2.80;99.90;;;;;;5049533;28;20036;-71
2022/12/14 06:17:02;;;;;;;29.65;15.40;;;-2.70;99.90;;;;;;5015483;28;20507;-71
2022/12/14 06:19:29;;;;;;;26.50;13.55;;;-2.70;99.90;;;;;;5045515;28;20057;-72
2022/12/14 06:21:57;;;;;;;23.75;13.40;;;-2.70;99.90;;;;;;5047973;28;20063;-70
2022/12/14 06:24:24;;;;;;;21.77;12.52;;;-2.70;99.90;;;;;;5050042;28;20045;-69
2022/12/14 06:26:51;;;;;;;26.15;12.82;;;-2.70;99.90;;;;;;5044271;28;20064;-69
2022/12/14 06:29:19;;;;;;;26.77;13.10;;;-2.70;99.90;;;;;;5045231;28;20111;-70
2022/12/14 06:31:46;;;;;;;20.85;11.80;;;-2.60;99.90;;;;;;5048378;28;20044;-71
2022/12/14 06:34:16;;;;;;;23.90;12.55;;;-2.60;99.90;;;;;;5047522;28;20152;-71
2022/12/14 06:36:45;;;;;;;25.80;13.20;;;-2.60;99.90;;;;;;5024157;28;20049;-70
2022/12/14 06:39:15;;;;;;;24.30;12.77;;;-2.60;99.90;;;;;;5007967;28;20528;-71
2022/12/14 06:41:43;;;;;;;23.90;12.98;;;-2.50;99.90;;;;;;5000731;28;20045;-70
2022/12/14 06:44:13;;;;;;;27.30;12.55;;;-2.50;99.90;;;;;;5047986;28;20530;-69
2022/12/14 06:46:41;;;;;;;28.23;13.70;;;-2.60;99.90;;;;;;5048532;28;20487;-69
2022/12/14 06:49:14;;;;;;;22.73;13.10;;;-2.60;99.90;;;;;;5050642;28;20045;-71
2022/12/14 06:51:41;;;;;;;32.60;14.00;;;-2.50;99.90;;;;;;5051046;28;20132;-70
2022/12/14 06:54:11;;;;;;;25.55;13.55;;;-2.50;99.90;;;;;;5051287;28;20051;-69
2022/12/14 06:56:39;;;;;;;24.73;14.73;;;-2.50;99.90;;;;;;5048746;28;20041;-70
2022/12/14 06:59:09;;;;;;;36.33;15.00;;;-2.40;99.90;;;;;;5052427;28;20498;-70
2022/12/14 07:01:38;;;;;;;32.97;15.68;;;-2.40;99.90;;;;;;5042264;28;20040;-70
2022/12/14 07:04:06;;;;;;;23.95;13.15;;;-2.40;99.90;;;;;;5031305;28;20076;-71
2022/12/14 07:06:37;;;;;;;25.23;13.63;;;-2.30;99.90;;;;;;5049928;28;20164;-68
2022/12/14 07:09:07;;;;;;;25.15;13.57;;;-2.40;99.90;;;;;;5050988;28;20037;-69
2022/12/14 07:11:35;;;;;;;23.77;13.57;;;-2.40;99.90;;;;;;5050459;28;20045;-69
2022/12/14 07:14:05;;;;;;;27.00;12.93;;;-2.40;99.90;;;;;;5050588;28;20048;-70
2022/12/14 07:16:34;;;;;;;27.20;16.00;;;-2.50;99.90;;;;;;5046965;28;20051;-68
2022/12/14 07:19:02;;;;;;;26.70;15.18;;;-2.50;99.90;;;;;;5047223;28;20055;-68
2022/12/14 07:21:30;;;;;;;24.67;14.00;;;-2.50;99.90;;;;;;5038529;28;20507;-72
2022/12/14 07:23:59;;;;;;;27.52;14.40;;;-2.40;99.90;;;;;;5029986;28;20064;-69
2022/12/14 07:26:27;;;;;;;25.38;14.85;;;-2.40;99.90;;;;;;5021441;28;20079;-69
2022/12/14 07:28:59;;;;;;;27.08;14.75;;;-2.30;99.90;;;;;;5029548;28;20111;-69
2022/12/14 07:31:28;;;;;;;26.52;15.55;;;-2.30;99.90;;;;;;5061847;28;20033;-69
2022/12/14 07:33:58;;;;;;;26.30;15.10;;;-2.30;99.90;;;;;;5045763;28;20046;-71
2022/12/14 07:36:28;;;;;;;24.58;13.60;;;-2.30;99.90;;;;;;5031663;28;20173;-71
2022/12/14 07:38:56;;;;;;;23.88;13.40;;;-2.20;99.90;;;;;;5027839;28;20064;-70
2022/12/14 07:41:26;;;;;;;24.27;13.50;;;-2.20;99.90;;;;;;5042486;28;20048;-69
2022/12/14 07:43:55;;;;;;;27.92;14.25;;;-2.10;99.90;;;;;;5032622;28;20345;-70
2022/12/14 07:46:25;;;;;;;26.73;13.32;;;-2.10;99.90;;;;;;5045081;28;20045;-71
2022/12/14 07:48:54;;;;;;;25.60;13.70;;;-2.10;99.90;;;;;;5033988;28;20095;-70
2022/12/14 07:51:28;;;;;;;24.92;13.38;;;-2.10;99.90;;;;;;5029045;28;20605;-71
2022/12/14 07:53:56;;;;;;;22.02;13.07;;;-2.00;99.90;;;;;;5036923;28;20055;-70
2022/12/14 07:56:26;;;;;;;33.13;16.38;;;-2.00;99.90;;;;;;5048847;28;20499;-72
2022/12/14 07:58:55;;;;;;;28.42;16.58;;;-2.00;99.90;;;;;;5046939;28;20037;-70
2022/12/14 08:01:28;;;;;;;26.15;14.20;;;-2.00;99.90;;;;;;5029916;28;20180;-70
2022/12/14 08:03:59;;;;;;;24.10;14.55;;;-1.90;99.90;;;;;;5045899;28;20087;-70
2022/12/14 08:06:28;;;;;;;22.35;13.77;;;-1.90;99.90;;;;;;5026647;28;20052;-70
2022/12/14 08:08:57;;;;;;;29.23;14.88;;;-1.90;99.90;;;;;;5045492;28;20070;-74
2022/12/14 08:11:24;;;;;;;25.02;13.30;;;-1.80;99.90;;;;;;5041759;28;20059;-70
2022/12/14 08:14:15;;;;;;;27.33;13.45;;;-1.80;99.90;;;;;;5042412;28;20056;-72
2022/12/14 08:16:44;;;;;;;30.83;14.45;;;-1.80;99.90;;;;;;5018295;28;20328;-69
2022/12/14 08:19:12;;;;;;;27.90;12.82;;;-1.70;99.90;;;;;;5013972;28;20053;-71
2022/12/14 08:21:41;;;;;;;26.42;14.00;;;-1.60;99.90;;;;;;5031753;28;20041;-73
2022/12/14 08:24:12;;;;;;;30.25;14.60;;;-1.60;99.90;;;;;;5020170;28;20148;-71
2022/12/14 08:26:40;;;;;;;29.00;14.02;;;-1.50;99.90;;;;;;5046545;28;20071;-69
2022/12/14 08:29:08;;;;;;;32.55;14.48;;;-1.50;99.90;;;;;;5041223;28;20448;-70
2022/12/14 08:31:35;;;;;;;24.98;14.45;;;-1.40;99.90;;;;;;5037892;28;20504;-70
2022/12/14 08:34:04;;;;;;;32.70;15.48;;;-1.40;99.90;;;;;;5049349;28;20132;-70
2022/12/14 08:36:33;;;;;;;26.80;15.20;;;-1.40;99.90;;;;;;5029488;28;20045;-71
2022/12/14 08:39:03;;;;;;;28.45;14.30;;;-1.30;99.90;;;;;;5026164;28;20080;-69
2022/12/14 08:41:31;;;;;;;28.13;15.00;;;-1.30;99.90;;;;;;5036943;28;20076;-70
2022/12/14 08:44:01;;;;;;;23.75;14.25;;;-1.20;99.90;;;;;;5049064;28;20072;-70
2022/12/14 08:46:32;;;;;;;30.75;14.55;;;-1.30;99.90;;;;;;5017006;28;20041;-72
2022/12/14 08:49:00;;;;;;;31.83;15.13;;;-1.30;99.90;;;;;;5035904;28;20349;-69
2022/12/14 08:51:27;;;;;;;24.33;14.65;;;-1.20;99.90;;;;;;5011998;28;20080;-71
2022/12/14 08:53:56;;;;;;;24.92;13.77;;;-1.10;99.90;;;;;;5035345;28;20415;-72
2022/12/14 08:56:26;;;;;;;35.08;15.68;;;-1.10;99.90;;;;;;5046905;28;20487;-70
2022/12/14 08:58:55;;;;;;;28.67;15.50;;;-1.10;99.90;;;;;;5033121;28;20072;-70
2022/12/14 09:01:27;;;;;;;26.50;15.27;;;-1.10;99.90;;;;;;5043929;28;20052;-70
2022/12/14 09:04:06;;;;;;;25.13;14.38;;;-1.10;99.90;;;;;;5049178;28;20057;-71
2022/12/14 09:06:37;;;;;;;25.00;14.60;;;-1.00;99.90;;;;;;5048215;28;20045;-71
2022/12/14 09:09:06;;;;;;;29.20;14.43;;;-0.80;99.90;;;;;;5015244;28;20130;-73
2022/12/14 09:11:42;;;;;;;28.45;14.35;;;-0.80;99.90;;;;;;5019538;28;20041;-71
2022/12/14 09:14:10;;;;;;;24.65;13.80;;;-0.70;99.90;;;;;;5048178;28;20076;-70
2022/12/14 09:16:38;;;;;;;27.55;14.77;;;-0.70;99.90;;;;;;5027463;28;20515;-72
2022/12/14 09:19:06;;;;;;;27.48;14.57;;;-0.80;99.90;;;;;;5027286;28;20461;-69
2022/12/14 09:21:34;;;;;;;26.20;14.43;;;-0.80;99.90;;;;;;5037369;28;20577;-71
2022/12/14 09:24:01;;;;;;;32.35;14.63;;;-0.90;99.90;;;;;;5042344;28;20100;-71
2022/12/14 09:26:29;;;;;;;30.23;18.45;;;-0.90;99.90;;;;;;5037653;28;20057;-70
2022/12/14 09:28:56;;;;;;;26.25;15.65;;;-0.90;99.90;;;;;;5042257;28;20491;-70
2022/12/14 09:31:26;;;;;;;30.17;18.25;;;-0.90;99.90;;;;;;5021750;28;20060;-72
2022/12/14 09:33:54;;;;;;;24.52;14.65;;;-0.80;99.90;;;;;;5048160;28;20040;-70
2022/12/14 09:36:26;;;;;;;27.95;14.85;;;-0.70;99.90;;;;;;5025949;28;20068;-72
2022/12/14 09:38:56;;;;;;;27.73;15.20;;;-0.70;99.90;;;;;;5040628;28;20056;-71
2022/12/14 09:41:31;;;;;;;31.25;14.48;;;-0.60;99.90;;;;;;5047426;28;20128;-71
2022/12/14 09:44:20;;;;;;;29.95;14.35;;;-0.60;99.90;;;;;;5047697;28;20099;-71
2022/12/14 09:47:44;;;;;;;30.13;14.13;;;-0.70;99.90;;;;;;5044127;28;20045;-71
2022/12/14 09:50:17;;;;;;;25.33;14.93;;;-0.80;99.90;;;;;;4993801;28;20053;-73
2022/12/14 09:52:53;;;;;;;33.10;17.23;;;-1.00;99.90;;;;;;4985179;28;20204;-72
2022/12/14 09:55:41;;;;;;;39.17;19.92;;;-1.00;99.90;;;;;;4990545;28;20073;-70
2022/12/14 09:58:20;;;;;;;25.20;14.75;;;-1.10;99.90;;;;;;5008042;28;20072;-71
2022/12/14 10:01:07;;;;;;;25.80;14.13;;;-1.10;99.90;;;;;;4973516;28;20050;-70
2022/12/14 10:04:06;;;;;;;24.20;14.65;;;-1.20;99.90;;;;;;4973592;28;20092;-70
2022/12/14 10:06:45;;;;;;;29.52;14.73;;;-1.30;99.90;;;;;;4989343;28;20053;-69
2022/12/14 10:09:36;;;;;;;25.75;15.10;;;-1.30;99.90;;;;;;4982465;28;20104;-71
2022/12/14 10:12:37;;;;;;;27.65;15.52;;;-1.40;99.90;;;;;;4984569;28;20105;-71
2022/12/14 10:15:13;;;;;;;28.15;16.13;;;-1.40;99.90;;;;;;5001565;28;20084;-71
2022/12/14 10:17:59;;;;;;;32.78;17.20;;;-1.40;99.90;;;;;;4968137;28;20054;-73
2022/12/14 10:20:51;;;;;;;37.83;21.23;;;-1.40;99.90;;;;;;5006641;28;20053;-71
2022/12/14 10:23:20;;;;;;;;;;;-1.40;99.90;;;;;;5045875;28;20063;-70
2022/12/14 10:25:54;;;;;;;29.33;16.52;;;-1.30;99.90;;;;;;5046017;28;19924;-69
2022/12/14 10:28:36;;;;;;;30.35;16.35;;;-1.20;99.90;;;;;;5047227;28;20119;-71
2022/12/14 10:31:09;;;;;;;31.60;17.30;;;-1.10;99.90;;;;;;5033274;28;20049;-73
2022/12/14 10:33:44;;;;;;;30.40;17.48;;;-1.00;99.90;;;;;;5031692;28;20435;-71
2022/12/14 10:36:28;;;;;;;30.90;17.23;;;-0.90;99.90;;;;;;5046426;28;20125;-72
2022/12/14 10:39:01;;;;;;;33.58;16.88;;;-0.80;99.90;;;;;;5044516;28;20452;-70
2022/12/14 10:42:06;;;;;;;29.85;16.92;;;-0.80;99.90;;;;;;5030430;28;20398;-71
2022/12/14 10:45:18;;;;;;;31.33;16.58;;;-0.80;99.90;;;;;;5008852;28;20108;-72
2022/12/14 10:48:17;;;;;;;31.20;17.45;;;-0.80;99.90;;;;;;5011749;28;20091;-70
2022/12/14 10:51:02;;;;;;;31.75;17.10;;;-0.80;99.90;;;;;;5010875;28;20461;-71
2022/12/14 10:53:40;;;;;;;31.02;17.48;;;-0.80;99.90;;;;;;5010018;28;20042;-69
2022/12/14 10:56:17;;;;;;;32.58;16.90;;;-0.70;99.90;;;;;;5030602;28;20466;-69
2022/12/14 10:59:17;;;;;;;30.95;16.30;;;-0.70;99.90;;;;;;4995754;28;20057;-70
2022/12/14 11:01:46;;;;;;;28.58;15.65;;;-0.70;99.90;;;;;;4998034;28;20119;-70
2022/12/14 11:04:52;;;;;;;32.92;16.05;;;-0.70;99.90;;;;;;5013182;28;20538;-71
2022/12/14 11:07:35;;;;;;;30.98;16.42;;;-0.80;99.90;;;;;;5025187;28;20462;-69
2022/12/14 11:10:24;;;;;;;27.65;16.70;;;-0.80;99.90;;;;;;5029284;28;20045;-70
2022/12/14 11:12:57;;;;;;;33.90;16.92;;;-0.70;99.90;;;;;;5021569;28;20041;-70
2022/12/14 11:15:39;;;;;;;29.52;16.50;;;-0.70;99.90;;;;;;5024012;28;20037;-70
2022/12/14 11:18:16;;;;;;;29.08;16.92;;;-0.70;99.90;;;;;;5035362;28;20113;-72
2022/12/14 11:21:02;;;;;;;30.75;16.40;;;-0.70;99.90;;;;;;5033929;28;20103;-71
2022/12/14 11:23:38;;;;;;;32.55;18.63;;;-0.60;99.90;;;;;;5049243;28;20052;-70
2022/12/14 11:26:15;;;;;;;28.75;16.40;;;-0.50;99.90;;;;;;5051506;28;20499;-71
2022/12/14 11:28:47;;;;;;;28.75;15.90;;;-0.40;99.90;;;;;;5028910;28;20946;-70
2022/12/14 11:31:21;;;;;;;27.45;16.63;;;-0.30;99.90;;;;;;5050506;28;20323;-72
2022/12/14 11:33:51;;;;;;;29.75;16.48;;;-0.30;99.90;;;;;;5033975;28;20060;-71
2022/12/14 11:36:39;;;;;;;29.90;16.67;;;-0.40;99.90;;;;;;5031055;28;20045;-72
2022/12/14 11:39:12;;;;;;;31.73;16.25;;;-0.40;99.90;;;;;;5033751;28;20075;-71
2022/12/14 11:41:45;;;;;;;28.67;16.65;;;-0.40;99.90;;;;;;5050241;28;20068;-72
2022/12/14 11:44:15;;;;;;;30.63;17.58;;;-0.40;99.90;;;;;;5040077;28;20144;-71
2022/12/14 11:46:58;;;;;;;31.38;16.65;;;-0.40;99.90;;;;;;5049286;28;20049;-72
2022/12/14 11:49:38;;;;;;;31.60;17.30;;;-0.50;99.90;;;;;;5047242;28;20403;-72
2022/12/14 11:52:37;;;;;;;34.40;18.52;;;-0.40;99.90;;;;;;5034103;28;20219;-72
2022/12/14 11:55:16;;;;;;;31.55;16.70;;;-0.40;99.90;;;;;;5060781;28;20052;-72
2022/12/14 11:57:56;;;;;;;31.10;16.85;;;-0.50;99.90;;;;;;5033286;28;20151;-71
2022/12/14 12:00:30;;;;;;;31.52;16.95;;;-0.40;99.90;;;;;;5052238;28;20466;-71
2022/12/14 12:03:13;;;;;;;30.50;16.70;;;-0.30;99.90;;;;;;5034355;28;20111;-72
2022/12/14 12:05:42;;;;;;;30.23;17.33;;;-0.30;99.90;;;;;;5050590;28;20396;-76
2022/12/14 12:08:27;;;;;;;29.58;16.55;;;-0.40;99.90;;;;;;5015608;28;20163;-76
2022/12/14 12:10:58;;;;;;;31.75;16.77;;;-0.30;99.90;;;;;;5049101;28;20075;-75
2022/12/14 12:13:38;;;;;;;32.05;18.40;;;-0.20;99.90;;;;;;5050433;28;20515;-75
2022/12/14 12:16:18;;;;;;;33.00;18.30;;;-0.20;99.90;;;;;;5049571;28;20041;-75
2022/12/14 12:18:58;;;;;;;38.70;20.88;;;-0.30;99.90;;;;;;5023670;28;20479;-75
2022/12/14 12:21:32;;;;;;;34.53;18.80;;;-0.20;99.90;;;;;;5044020;28;20037;-76
2022/12/14 12:24:23;;;;;;;33.33;18.95;;;-0.20;99.90;;;;;;5032543;28;20071;-74
2022/12/14 12:26:58;;;;;;;32.53;18.98;;;-0.20;99.90;;;;;;5050233;28;20106;-76
2022/12/14 12:29:30;;;;;;;34.05;18.23;;;-0.20;99.90;;;;;;5038991;28;20055;-75
2022/12/14 12:32:19;;;;;;;33.55;18.13;;;-0.20;99.90;;;;;;5047015;28;20041;-74
2022/12/14 12:34:56;;;;;;;30.45;17.08;;;-0.20;99.90;;;;;;5043350;28;20474;-75
2022/12/14 12:37:44;;;;;;;36.40;20.27;;;-0.30;99.90;;;;;;5018191;28;20060;-76
2022/12/14 12:40:18;;;;;;;30.08;17.77;;;-0.30;99.90;;;;;;5032462;28;20045;-76
2022/12/14 12:43:13;;;;;;;28.52;17.20;;;-0.30;99.90;;;;;;5033716;28;20124;-76
2022/12/14 12:45:52;;;;;;;32.75;18.75;;;-0.30;99.90;;;;;;5033154;28;20045;-75
2022/12/14 12:48:28;;;;;;;39.13;20.08;;;-0.40;99.90;;;;;;5037808;28;20041;-75
2022/12/14 12:51:03;;;;;;;37.55;19.23;;;-0.50;99.90;;;;;;5025582;28;20052;-75
2022/12/14 12:53:39;;;;;;;36.45;18.95;;;-0.60;99.90;;;;;;5029881;28;20123;-75
2022/12/14 12:56:24;;;;;;;33.72;18.73;;;-0.50;99.90;;;;;;5045508;28;20090;-76
2022/12/14 12:58:52;;;;;;;34.45;19.02;;;-0.50;99.90;;;;;;5056769;28;20384;-76
2022/12/14 13:01:32;;;;;;;32.42;17.92;;;-0.40;99.90;;;;;;5032740;28;20073;-75
2022/12/14 13:04:04;;;;;;;33.03;18.75;;;-0.30;99.90;;;;;;5029206;28;20573;-76
2022/12/14 13:06:49;;;;;;;34.40;19.63;;;-0.30;99.90;;;;;;5045775;28;20116;-75
2022/12/14 13:10:01;;;;;;;34.40;18.48;;;-0.30;99.90;;;;;;5032742;28;20133;-76
2022/12/14 13:12:37;;;;;;;35.25;18.42;;;-0.30;99.90;;;;;;5035895;28;20056;-75
2022/12/14 13:15:39;;;;;;;33.90;17.27;;;-0.20;99.90;;;;;;5033120;28;20149;-75
2022/12/14 13:18:13;;;;;;;;;;;-0.20;99.90;;;;;;5056760;28;20499;-76
2022/12/14 13:21:11;;;;;;;30.10;17.23;;;-0.30;99.90;;;;;;5022270;28;20337;-76
2022/12/14 13:23:39;;;;;;;33.47;18.48;;;-0.30;99.90;;;;;;5057062;28;20124;-75